METAR Data
IDs: Format: Raw Decoded Include TAF

Data at: 0334 UTC 06 Dec 2019

METAR for:KLWD (Lamoni Muni, IA, US)
Text:KLWD 060253Z AUTO 29004KT 10SM CLR 07/01 A2997 RMK AO2 SLP155 T00720011 51018
Temperature: 7.2°C ( 45°F)
Dewpoint: 1.1°C ( 34°F) [RH = 65%]
Pressure (altimeter):29.97 inches Hg (1015.0 mb) [Sea level pressure: 1015.5 mb]
Winds:from the WNW (290 degrees) at 5 MPH (4 knots; 2.1 m/s)
Visibility:10 or more sm (16+ km)
Ceiling:at least 12,000 feet AGL
Clouds:sky clear below 12,000 feet AGL
QC Flag:automated observation with no human augmentation